Cheikh El Mokrani — C6WD5 — position and weather

sailwx.info

Track history (hours):
 
Tides and Currents Weather Stations Pressure Air Temp Water Temp Dewpoint Dewpoint Depression Visibility Wind Speed Wind Dir Waves Ship Positions

Cheikh El Mokrani

Last reported at 2018-Jun-21 22:49 UTC. Time now 2018-Jun-22 20:29 UTC.
Position N 36°60' E 006°59'.

Length 220 m; draft 8 m.

Type: Ship (hazmat cat D). MMSI: 309979000.

Date/timePositionNaut miles runAvg speedWind from/ knotsBaromVisibWave heightAir tempDewpointWater temp
2018-Jun-21 22:49N 36°60' E 006°59'0 0.0
2018-Jun-21 22:30N 36°60' E 006°59'  
2018-Jun-17 20:42N 41°33' E 009°55'2 8.8
2018-Jun-17 20:30N 41°34' E 009°54'4 8.7
2018-Jun-17 20:00N 41°39' E 009°53'17 9.6
2018-Jun-17 18:15N 41°55' E 009°49'2210.6
2018-Jun-17 16:11N 42°17' E 009°45'2 9.7
2018-Jun-17 15:59N 42°19' E 009°45'5 9.7
2018-Jun-17 15:30N 42°24' E 009°44'5 9.7
2018-Jun-17 15:00N 42°28' E 009°43'5 9.6
2018-Jun-17 14:30N 42°33' E 009°42'5 9.7
2018-Jun-17 14:00N 42°38' E 009°41'5 9.8
2018-Jun-17 13:27N 42°43' E 009°39'511.8
2018-Jun-17 13:00N 42°48' E 009°38'612.3
2018-Jun-17 12:30N 42°54' E 009°37'612.1
2018-Jun-17 12:00N 43°00' E 009°36'611.8
2018-Jun-17 11:30N 43°06' E 009°37'612.0
2018-Jun-17 11:00N 43°12' E 009°38'612.1
2018-Jun-17 10:30N 43°18' E 009°40'611.9
2018-Jun-17 10:00N 43°24' E 009°42'611.8
2018-Jun-17 09:30N 43°29' E 009°44'612.2
2018-Jun-17 09:00N 43°35' E 009°46'612.3
2018-Jun-17 08:30N 43°41' E 009°48'612.3
2018-Jun-17 08:00N 43°47' E 009°50'612.1
2018-Jun-17 07:30N 43°53' E 009°51'611.9
2018-Jun-17 07:00N 43°59' E 009°53'510.3
2018-Jun-17 06:30N 44°04' E 009°51'1 1.5
2018-Jun-17 06:00N 44°05' E 009°50'0 0.0
2018-Jun-17 05:24N 44°05' E 009°50'0 0.0
2018-Jun-17 05:00N 44°05' E 009°50'0 0.0
2018-Jun-17 04:30N 44°05' E 009°50'0 0.0
2018-Jun-17 03:57N 44°05' E 009°50'0 0.0
2018-Jun-17 03:24N 44°05' E 009°50'0 0.0
2018-Jun-17 03:00N 44°05' E 009°50'0 0.0
2018-Jun-17 02:30N 44°05' E 009°50'0 0.0
2018-Jun-17 02:00N 44°05' E 009°50'0 0.0
2018-Jun-17 01:27N 44°05' E 009°50'0 0.0
2018-Jun-17 01:00N 44°05' E 009°50'0 0.0
2018-Jun-17 00:24N 44°05' E 009°50'0 0.0
2018-Jun-17 00:00N 44°05' E 009°50'0 0.0
2018-Jun-16 23:30N 44°05' E 009°50'0 0.0
2018-Jun-16 23:00N 44°05' E 009°50'0 0.0
2018-Jun-16 22:27N 44°05' E 009°50'0 0.0
2018-Jun-16 21:57N 44°05' E 009°50'0 0.0
2018-Jun-16 21:30N 44°05' E 009°50'0 0.0
2018-Jun-16 21:00N 44°05' E 009°50'0 0.0
2018-Jun-16 20:30N 44°05' E 009°50'0 0.0
2018-Jun-16 19:57N 44°05' E 009°50'0 0.0
2018-Jun-16 19:30N 44°05' E 009°50'0 0.0
2018-Jun-16 19:00N 44°05' E 009°50'0 0.0
2018-Jun-16 18:30N 44°05' E 009°50'0 0.0
2018-Jun-16 18:00N 44°05' E 009°50'0 0.0
2018-Jun-16 17:27N 44°05' E 009°50'0 0.0
2018-Jun-16 17:00N 44°05' E 009°50'0 0.0
2018-Jun-16 16:30N 44°05' E 009°50'0 0.0
2018-Jun-16 16:00N 44°05' E 009°50'0 0.0
2018-Jun-16 15:30N 44°05' E 009°50'0 0.0
2018-Jun-16 14:51N 44°05' E 009°50'0 0.0
2018-Jun-16 14:30N 44°05' E 009°50'0 0.0
2018-Jun-16 13:57N 44°05' E 009°50'0 0.0
2018-Jun-16 13:27N 44°05' E 009°50'0 0.0
2018-Jun-16 12:57N 44°05' E 009°50'0 0.0
2018-Jun-16 12:30N 44°05' E 009°50'0 0.0
2018-Jun-16 12:00N 44°05' E 009°50'0 0.0
2018-Jun-16 11:30N 44°05' E 009°50'0 0.0
2018-Jun-16 11:00N 44°05' E 009°50'0 0.0
2018-Jun-16 10:30N 44°05' E 009°50'0 0.0
2018-Jun-16 10:00N 44°05' E 009°50'0 0.0
2018-Jun-16 09:30N 44°05' E 009°50'0 0.0
2018-Jun-16 09:00N 44°05' E 009°50'0 0.0
2018-Jun-16 08:30N 44°05' E 009°50'0 0.0
2018-Jun-16 08:00N 44°05' E 009°50'0 0.0
2018-Jun-16 07:30N 44°05' E 009°50'0 0.0
2018-Jun-16 07:00N 44°05' E 009°50'0 0.0
2018-Jun-16 06:30N 44°05' E 009°50'0 0.0
2018-Jun-16 06:00N 44°05' E 009°50'0 0.0
2018-Jun-16 05:30N 44°05' E 009°50'0 0.0
2018-Jun-16 05:00N 44°05' E 009°50'0 0.0
2018-Jun-16 04:30N 44°05' E 009°50'0 0.0
2018-Jun-16 04:00N 44°05' E 009°50'0 0.0
2018-Jun-16 03:30N 44°05' E 009°50'0 0.0
2018-Jun-16 03:00N 44°05' E 009°50'0 0.0
2018-Jun-16 02:30N 44°05' E 009°50'0 0.0
2018-Jun-16 02:00N 44°05' E 009°50'0 0.0
2018-Jun-16 01:30N 44°05' E 009°50'0 0.0
2018-Jun-16 01:00N 44°05' E 009°50'0 0.0
2018-Jun-16 00:30N 44°05' E 009°50'0 0.0
2018-Jun-16 00:00N 44°05' E 009°50'0 0.0
2018-Jun-15 23:30N 44°05' E 009°50'0 0.0
2018-Jun-15 23:00N 44°05' E 009°50'0 0.0
2018-Jun-15 22:30N 44°05' E 009°50'0 0.0
2018-Jun-15 22:00N 44°05' E 009°50'0 0.0
2018-Jun-15 21:30N 44°05' E 009°50'0 0.0
2018-Jun-15 21:00N 44°05' E 009°50'0 0.0
2018-Jun-15 20:30N 44°05' E 009°50'0 0.0
2018-Jun-15 20:00N 44°05' E 009°50'0 0.0
2018-Jun-15 19:30N 44°05' E 009°50'0 0.0
2018-Jun-15 19:00N 44°05' E 009°50'0 0.0
2018-Jun-15 18:30N 44°05' E 009°50'0 0.0
2018-Jun-15 18:00N 44°05' E 009°50'0 0.0
2018-Jun-15 17:30N 44°05' E 009°50'0 0.0
2018-Jun-15 17:00N 44°05' E 009°50'0 0.0
2018-Jun-15 16:30N 44°05' E 009°50'0 0.0
2018-Jun-15 16:00N 44°05' E 009°50'0 0.0
2018-Jun-15 15:30N 44°05' E 009°50'0 0.0
2018-Jun-15 15:00N 44°05' E 009°50'0 0.0
2018-Jun-15 14:30N 44°05' E 009°50'0 0.0
2018-Jun-15 13:54N 44°05' E 009°50'0 0.0
2018-Jun-15 13:30N 44°05' E 009°50'0 0.0
2018-Jun-15 12:51N 44°05' E 009°50'0 0.0
2018-Jun-15 12:30N 44°05' E 009°50'0 0.0
2018-Jun-15 12:00N 44°05' E 009°50'0 0.0
2018-Jun-15 11:30N 44°05' E 009°50'0 0.0
2018-Jun-15 11:00N 44°05' E 009°50'0 0.0
2018-Jun-15 10:30N 44°05' E 009°50'0 0.0
2018-Jun-15 10:00N 44°05' E 009°50'0 0.0
2018-Jun-15 09:30N 44°05' E 009°50'0 0.0
2018-Jun-15 08:57N 44°05' E 009°50'0 0.0
2018-Jun-15 08:24N 44°05' E 009°50'0 0.0
2018-Jun-15 08:00N 44°05' E 009°50'0 0.0
2018-Jun-15 07:30N 44°05' E 009°50'0 0.0
2018-Jun-15 07:00N 44°05' E 009°50'0 0.0
2018-Jun-15 06:24N 44°05' E 009°50'0 0.0
2018-Jun-15 06:00N 44°05' E 009°50'0 0.0
2018-Jun-15 05:30N 44°05' E 009°50'0 0.0
2018-Jun-15 05:00N 44°05' E 009°50'0 0.0
2018-Jun-15 04:30N 44°05' E 009°50'0 0.0
2018-Jun-15 03:57N 44°05' E 009°50'0 0.0
2018-Jun-15 03:30N 44°05' E 009°50'0 0.0
2018-Jun-15 03:00N 44°05' E 009°50'0 0.0
2018-Jun-15 02:30N 44°05' E 009°50'0 0.0
2018-Jun-15 01:57N 44°05' E 009°50'0 0.0
2018-Jun-15 01:30N 44°05' E 009°50'0 0.0
2018-Jun-15 01:00N 44°05' E 009°50'0 0.0
2018-Jun-15 00:30N 44°05' E 009°50'0 0.0
2018-Jun-15 00:00N 44°05' E 009°50'0 0.0
2018-Jun-14 23:30N 44°05' E 009°50'0 0.0
2018-Jun-14 22:57N 44°05' E 009°50'0 0.0
2018-Jun-14 22:30N 44°05' E 009°50'0 0.0
2018-Jun-14 22:00N 44°05' E 009°50'0 0.0
2018-Jun-14 21:30N 44°05' E 009°50'0 0.0
2018-Jun-14 21:00N 44°05' E 009°50'0 0.0
2018-Jun-14 20:30N 44°05' E 009°50'0 0.0
2018-Jun-14 20:00N 44°05' E 009°50'0 0.0
2018-Jun-14 19:30N 44°05' E 009°50'0 0.0
2018-Jun-14 19:00N 44°05' E 009°50'0 0.0
2018-Jun-14 18:30N 44°05' E 009°50'0 0.0
2018-Jun-14 17:57N 44°05' E 009°50'0 0.0
2018-Jun-14 17:30N 44°05' E 009°50'0 0.0
2018-Jun-14 17:00N 44°05' E 009°50'0 0.0
2018-Jun-14 16:30N 44°05' E 009°50'0 0.0
2018-Jun-14 16:00N 44°05' E 009°50'0 0.0
2018-Jun-14 15:24N 44°05' E 009°50'0 0.0
2018-Jun-14 15:00N 44°05' E 009°50'0 0.0
2018-Jun-14 14:30N 44°05' E 009°50'0 0.0
2018-Jun-14 14:00N 44°05' E 009°50'0 0.0
2018-Jun-14 13:30N 44°05' E 009°50'0 0.0
2018-Jun-14 13:00N 44°05' E 009°50'0 0.0
2018-Jun-14 12:29N 44°05' E 009°50'0 0.0
2018-Jun-14 12:00N 44°05' E 009°50'0 0.0
2018-Jun-14 11:30N 44°05' E 009°50'0 0.0
2018-Jun-14 11:00N 44°05' E 009°50'0 0.0
2018-Jun-14 10:30N 44°05' E 009°50'0 0.0
2018-Jun-14 10:00N 44°05' E 009°50'0 0.0
2018-Jun-14 09:30N 44°05' E 009°50'0 0.0
2018-Jun-14 09:00N 44°05' E 009°50'0 0.0
2018-Jun-14 08:30N 44°05' E 009°50'0 0.0
2018-Jun-14 08:00N 44°05' E 009°50'0 0.0
2018-Jun-14 07:29N 44°05' E 009°50'0 0.0
2018-Jun-14 07:00N 44°05' E 009°50'0 0.3
2018-Jun-14 06:30N 44°05' E 009°50'2 3.7
2018-Jun-14 06:00N 44°03' E 009°52'2 4.3
2018-Jun-14 05:30N 44°02' E 009°54'3 5.9
2018-Jun-14 05:00N 43°59' E 009°56'3 6.9
2018-Jun-14 04:30N 43°56' E 009°55'4 7.3
2018-Jun-14 04:00N 43°52' E 009°53'3 7.0
2018-Jun-14 03:30N 43°49' E 009°52'4 7.4
2018-Jun-14 03:00N 43°45' E 009°50'5 9.2
2018-Jun-14 02:30N 43°41' E 009°48'4 9.0
2018-Jun-14 02:00N 43°37' E 009°47'5 9.1
2018-Jun-14 01:30N 43°32' E 009°46'5 9.3
2018-Jun-14 01:00N 43°28' E 009°45'5 9.9
2018-Jun-14 00:30N 43°23' E 009°43'611.5
2018-Jun-14 00:00N 43°17' E 009°42'611.3
2018-Jun-13 23:30N 43°11' E 009°41'611.7
2018-Jun-13 23:00N 43°06' E 009°39'611.6
2018-Jun-13 22:29N 42°60' E 009°39'611.6
2018-Jun-13 22:00N 42°54' E 009°41'611.6
2018-Jun-13 21:28N 42°48' E 009°43'711.3
2018-Jun-13 20:51N 42°41' E 009°44'411.0
2018-Jun-13 20:30N 42°37' E 009°45'510.8
2018-Jun-13 20:00N 42°32' E 009°46'810.8
2018-Jun-13 19:17N 42°24' E 009°48'  
Track history (hours):
 
Tides and Currents Weather Stations Pressure Air Temp Water Temp Dewpoint Dewpoint Depression Visibility Wind Speed Wind Dir Waves Ship Positions

Cheikh El Mokrani

Last reported at 2018-Jun-21 22:49 UTC. Time now 2018-Jun-22 20:29 UTC.
Position N 36°60' E 006°59'.

Length 220 m; draft 8 m.

Type: Ship (hazmat cat D). MMSI: 309979000.

Date/timePositionNaut miles runAvg speedWind from/ knotsBaromVisibWave heightAir tempDewpointWater temp
2018-Jun-21 22:49N 36°60' E 006°59'0 0.0
2018-Jun-21 22:30N 36°60' E 006°59'  
2018-Jun-17 20:42N 41°33' E 009°55'2 8.8
2018-Jun-17 20:30N 41°34' E 009°54'4 8.7
2018-Jun-17 20:00N 41°39' E 009°53'17 9.6
2018-Jun-17 18:15N 41°55' E 009°49'2210.6
2018-Jun-17 16:11N 42°17' E 009°45'2 9.7
2018-Jun-17 15:59N 42°19' E 009°45'5 9.7
2018-Jun-17 15:30N 42°24' E 009°44'5 9.7
2018-Jun-17 15:00N 42°28' E 009°43'5 9.6
2018-Jun-17 14:30N 42°33' E 009°42'5 9.7
2018-Jun-17 14:00N 42°38' E 009°41'5 9.8
2018-Jun-17 13:27N 42°43' E 009°39'511.8
2018-Jun-17 13:00N 42°48' E 009°38'612.3
2018-Jun-17 12:30N 42°54' E 009°37'612.1
2018-Jun-17 12:00N 43°00' E 009°36'611.8
2018-Jun-17 11:30N 43°06' E 009°37'612.0
2018-Jun-17 11:00N 43°12' E 009°38'612.1
2018-Jun-17 10:30N 43°18' E 009°40'611.9
2018-Jun-17 10:00N 43°24' E 009°42'611.8
2018-Jun-17 09:30N 43°29' E 009°44'612.2
2018-Jun-17 09:00N 43°35' E 009°46'612.3
2018-Jun-17 08:30N 43°41' E 009°48'612.3
2018-Jun-17 08:00N 43°47' E 009°50'612.1
2018-Jun-17 07:30N 43°53' E 009°51'611.9
2018-Jun-17 07:00N 43°59' E 009°53'510.3
2018-Jun-17 06:30N 44°04' E 009°51'1 1.5
2018-Jun-17 06:00N 44°05' E 009°50'0 0.0
2018-Jun-17 05:24N 44°05' E 009°50'0 0.0
2018-Jun-17 05:00N 44°05' E 009°50'0 0.0
2018-Jun-17 04:30N 44°05' E 009°50'0 0.0
2018-Jun-17 03:57N 44°05' E 009°50'0 0.0
2018-Jun-17 03:24N 44°05' E 009°50'0 0.0
2018-Jun-17 03:00N 44°05' E 009°50'0 0.0
2018-Jun-17 02:30N 44°05' E 009°50'0 0.0
2018-Jun-17 02:00N 44°05' E 009°50'0 0.0
2018-Jun-17 01:27N 44°05' E 009°50'0 0.0
2018-Jun-17 01:00N 44°05' E 009°50'0 0.0
2018-Jun-17 00:24N 44°05' E 009°50'0 0.0
2018-Jun-17 00:00N 44°05' E 009°50'0 0.0
2018-Jun-16 23:30N 44°05' E 009°50'0 0.0
2018-Jun-16 23:00N 44°05' E 009°50'0 0.0
2018-Jun-16 22:27N 44°05' E 009°50'0 0.0
2018-Jun-16 21:57N 44°05' E 009°50'0 0.0
2018-Jun-16 21:30N 44°05' E 009°50'0 0.0
2018-Jun-16 21:00N 44°05' E 009°50'0 0.0
2018-Jun-16 20:30N 44°05' E 009°50'0 0.0
2018-Jun-16 19:57N 44°05' E 009°50'0 0.0
2018-Jun-16 19:30N 44°05' E 009°50'0 0.0
2018-Jun-16 19:00N 44°05' E 009°50'0 0.0
2018-Jun-16 18:30N 44°05' E 009°50'0 0.0
2018-Jun-16 18:00N 44°05' E 009°50'0 0.0
2018-Jun-16 17:27N 44°05' E 009°50'0 0.0
2018-Jun-16 17:00N 44°05' E 009°50'0 0.0
2018-Jun-16 16:30N 44°05' E 009°50'0 0.0
2018-Jun-16 16:00N 44°05' E 009°50'0 0.0
2018-Jun-16 15:30N 44°05' E 009°50'0 0.0
2018-Jun-16 14:51N 44°05' E 009°50'0 0.0
2018-Jun-16 14:30N 44°05' E 009°50'0 0.0
2018-Jun-16 13:57N 44°05' E 009°50'0 0.0
2018-Jun-16 13:27N 44°05' E 009°50'0 0.0
2018-Jun-16 12:57N 44°05' E 009°50'0 0.0
2018-Jun-16 12:30N 44°05' E 009°50'0 0.0
2018-Jun-16 12:00N 44°05' E 009°50'0 0.0
2018-Jun-16 11:30N 44°05' E 009°50'0 0.0
2018-Jun-16 11:00N 44°05' E 009°50'0 0.0
2018-Jun-16 10:30N 44°05' E 009°50'0 0.0
2018-Jun-16 10:00N 44°05' E 009°50'0 0.0
2018-Jun-16 09:30N 44°05' E 009°50'0 0.0
2018-Jun-16 09:00N 44°05' E 009°50'0 0.0
2018-Jun-16 08:30N 44°05' E 009°50'0 0.0
2018-Jun-16 08:00N 44°05' E 009°50'0 0.0
2018-Jun-16 07:30N 44°05' E 009°50'0 0.0
2018-Jun-16 07:00N 44°05' E 009°50'0 0.0
2018-Jun-16 06:30N 44°05' E 009°50'0 0.0
2018-Jun-16 06:00N 44°05' E 009°50'0 0.0
2018-Jun-16 05:30N 44°05' E 009°50'0 0.0
2018-Jun-16 05:00N 44°05' E 009°50'0 0.0
2018-Jun-16 04:30N 44°05' E 009°50'0 0.0
2018-Jun-16 04:00N 44°05' E 009°50'0 0.0
2018-Jun-16 03:30N 44°05' E 009°50'0 0.0
2018-Jun-16 03:00N 44°05' E 009°50'0 0.0
2018-Jun-16 02:30N 44°05' E 009°50'0 0.0
2018-Jun-16 02:00N 44°05' E 009°50'0 0.0
2018-Jun-16 01:30N 44°05' E 009°50'0 0.0
2018-Jun-16 01:00N 44°05' E 009°50'0 0.0
2018-Jun-16 00:30N 44°05' E 009°50'0 0.0
2018-Jun-16 00:00N 44°05' E 009°50'0 0.0
2018-Jun-15 23:30N 44°05' E 009°50'0 0.0
2018-Jun-15 23:00N 44°05' E 009°50'0 0.0
2018-Jun-15 22:30N 44°05' E 009°50'0 0.0
2018-Jun-15 22:00N 44°05' E 009°50'0 0.0
2018-Jun-15 21:30N 44°05' E 009°50'0 0.0
2018-Jun-15 21:00N 44°05' E 009°50'0 0.0
2018-Jun-15 20:30N 44°05' E 009°50'0 0.0
2018-Jun-15 20:00N 44°05' E 009°50'0 0.0
2018-Jun-15 19:30N 44°05' E 009°50'0 0.0
2018-Jun-15 19:00N 44°05' E 009°50'0 0.0
2018-Jun-15 18:30N 44°05' E 009°50'0 0.0
2018-Jun-15 18:00N 44°05' E 009°50'0 0.0
2018-Jun-15 17:30N 44°05' E 009°50'0 0.0
2018-Jun-15 17:00N 44°05' E 009°50'0 0.0
2018-Jun-15 16:30N 44°05' E 009°50'0 0.0
2018-Jun-15 16:00N 44°05' E 009°50'0 0.0
2018-Jun-15 15:30N 44°05' E 009°50'0 0.0
2018-Jun-15 15:00N 44°05' E 009°50'0 0.0
2018-Jun-15 14:30N 44°05' E 009°50'0 0.0
2018-Jun-15 13:54N 44°05' E 009°50'0 0.0
2018-Jun-15 13:30N 44°05' E 009°50'0 0.0
2018-Jun-15 12:51N 44°05' E 009°50'0 0.0
2018-Jun-15 12:30N 44°05' E 009°50'0 0.0
2018-Jun-15 12:00N 44°05' E 009°50'0 0.0
2018-Jun-15 11:30N 44°05' E 009°50'0 0.0
2018-Jun-15 11:00N 44°05' E 009°50'0 0.0
2018-Jun-15 10:30N 44°05' E 009°50'0 0.0
2018-Jun-15 10:00N 44°05' E 009°50'0 0.0
2018-Jun-15 09:30N 44°05' E 009°50'0 0.0
2018-Jun-15 08:57N 44°05' E 009°50'0 0.0
2018-Jun-15 08:24N 44°05' E 009°50'0 0.0
2018-Jun-15 08:00N 44°05' E 009°50'0 0.0
2018-Jun-15 07:30N 44°05' E 009°50'0 0.0
2018-Jun-15 07:00N 44°05' E 009°50'0 0.0
2018-Jun-15 06:24N 44°05' E 009°50'0 0.0
2018-Jun-15 06:00N 44°05' E 009°50'0 0.0
2018-Jun-15 05:30N 44°05' E 009°50'0 0.0
2018-Jun-15 05:00N 44°05' E 009°50'0 0.0
2018-Jun-15 04:30N 44°05' E 009°50'0 0.0
2018-Jun-15 03:57N 44°05' E 009°50'0 0.0
2018-Jun-15 03:30N 44°05' E 009°50'0 0.0
2018-Jun-15 03:00N 44°05' E 009°50'0 0.0
2018-Jun-15 02:30N 44°05' E 009°50'0 0.0
2018-Jun-15 01:57N 44°05' E 009°50'0 0.0
2018-Jun-15 01:30N 44°05' E 009°50'0 0.0
2018-Jun-15 01:00N 44°05' E 009°50'0 0.0
2018-Jun-15 00:30N 44°05' E 009°50'0 0.0
2018-Jun-15 00:00N 44°05' E 009°50'0 0.0
2018-Jun-14 23:30N 44°05' E 009°50'0 0.0
2018-Jun-14 22:57N 44°05' E 009°50'0 0.0
2018-Jun-14 22:30N 44°05' E 009°50'0 0.0
2018-Jun-14 22:00N 44°05' E 009°50'0 0.0
2018-Jun-14 21:30N 44°05' E 009°50'0 0.0
2018-Jun-14 21:00N 44°05' E 009°50'0 0.0
2018-Jun-14 20:30N 44°05' E 009°50'0 0.0
2018-Jun-14 20:00N 44°05' E 009°50'0 0.0
2018-Jun-14 19:30N 44°05' E 009°50'0 0.0
2018-Jun-14 19:00N 44°05' E 009°50'0 0.0
2018-Jun-14 18:30N 44°05' E 009°50'0 0.0
2018-Jun-14 17:57N 44°05' E 009°50'0 0.0
2018-Jun-14 17:30N 44°05' E 009°50'0 0.0
2018-Jun-14 17:00N 44°05' E 009°50'0 0.0
2018-Jun-14 16:30N 44°05' E 009°50'0 0.0
2018-Jun-14 16:00N 44°05' E 009°50'0 0.0
2018-Jun-14 15:24N 44°05' E 009°50'0 0.0
2018-Jun-14 15:00N 44°05' E 009°50'0 0.0
2018-Jun-14 14:30N 44°05' E 009°50'0 0.0
2018-Jun-14 14:00N 44°05' E 009°50'0 0.0
2018-Jun-14 13:30N 44°05' E 009°50'0 0.0
2018-Jun-14 13:00N 44°05' E 009°50'0 0.0
2018-Jun-14 12:29N 44°05' E 009°50'0 0.0
2018-Jun-14 12:00N 44°05' E 009°50'0 0.0
2018-Jun-14 11:30N 44°05' E 009°50'0 0.0
2018-Jun-14 11:00N 44°05' E 009°50'0 0.0
2018-Jun-14 10:30N 44°05' E 009°50'0 0.0
2018-Jun-14 10:00N 44°05' E 009°50'0 0.0
2018-Jun-14 09:30N 44°05' E 009°50'0 0.0
2018-Jun-14 09:00N 44°05' E 009°50'0 0.0
2018-Jun-14 08:30N 44°05' E 009°50'0 0.0
2018-Jun-14 08:00N 44°05' E 009°50'0 0.0
2018-Jun-14 07:29N 44°05' E 009°50'0 0.0
2018-Jun-14 07:00N 44°05' E 009°50'0 0.3
2018-Jun-14 06:30N 44°05' E 009°50'2 3.7
2018-Jun-14 06:00N 44°03' E 009°52'2 4.3
2018-Jun-14 05:30N 44°02' E 009°54'3 5.9
2018-Jun-14 05:00N 43°59' E 009°56'3 6.9
2018-Jun-14 04:30N 43°56' E 009°55'4 7.3
2018-Jun-14 04:00N 43°52' E 009°53'3 7.0
2018-Jun-14 03:30N 43°49' E 009°52'4 7.4
2018-Jun-14 03:00N 43°45' E 009°50'5 9.2
2018-Jun-14 02:30N 43°41' E 009°48'4 9.0
2018-Jun-14 02:00N 43°37' E 009°47'5 9.1
2018-Jun-14 01:30N 43°32' E 009°46'5 9.3
2018-Jun-14 01:00N 43°28' E 009°45'5 9.9
2018-Jun-14 00:30N 43°23' E 009°43'611.5
2018-Jun-14 00:00N 43°17' E 009°42'611.3
2018-Jun-13 23:30N 43°11' E 009°41'611.7
2018-Jun-13 23:00N 43°06' E 009°39'611.6
2018-Jun-13 22:29N 42°60' E 009°39'611.6
2018-Jun-13 22:00N 42°54' E 009°41'611.6
2018-Jun-13 21:28N 42°48' E 009°43'711.3
2018-Jun-13 20:51N 42°41' E 009°44'411.0
2018-Jun-13 20:30N 42°37' E 009°45'510.8
2018-Jun-13 20:00N 42°32' E 009°46'810.8
2018-Jun-13 19:17N 42°24' E 009°48'  

Dump ship's entire track history